Time;durP1;ratioP1;P1;durP2;ratioP2;P2;SDS_P1;SDS_P2;PMS_P1;PMS_P2;Temp;Humidity;BMP_temperature;BMP_pressure;BME280_temperature;BME280_humidity;BME280_pressure;Samples;Min_cycle;Max_cycle;Signal;HPM_P1;HPM_P2
2022/11/09 00:01:53;;;;;;;;;;;13.60;99.90;;;;;;2615306;54;21112;-69
2022/11/09 00:04:22;;;;;;;;;;;11.80;99.90;;;;;;2619707;54;20015;-71
2022/11/09 00:06:54;;;;;;;;;;;12.30;99.90;;;;;;2617249;54;19958;-71
2022/11/09 00:09:24;;;;;;;;;;;12.30;99.90;;;;;;2618904;54;19965;-70
2022/11/09 00:11:55;;;;;;;;;;;12.30;99.90;;;;;;2627195;54;19939;-71
2022/11/09 00:14:24;;;;;;;;;;;12.30;99.90;;;;;;2627334;54;19947;-71
2022/11/09 00:16:56;;;;;;;;;;;12.30;99.90;;;;;;2618117;54;19952;-72
2022/11/09 00:19:26;;;;;;;;;;;12.30;99.90;;;;;;2618430;54;19957;-71
2022/11/09 00:21:55;;;;;;;;;;;12.30;99.90;;;;;;2619945;39;20381;-71
2022/11/09 00:24:25;;;;;;;;;;;12.30;99.90;;;;;;2617265;31;20480;-71
2022/11/09 00:26:54;;;;;;;;;;;12.30;99.90;;;;;;2616143;54;19946;-71
2022/11/09 00:29:24;;;;;;;;;;;12.30;99.90;;;;;;2617228;54;19951;-71
2022/11/09 00:31:53;;;;;;;;;;;12.30;99.90;;;;;;2616603;54;19999;-72
2022/11/09 00:34:25;;;;;;;;;;;12.30;99.90;;;;;;2617392;31;20439;-71
2022/11/09 00:36:55;;;;;;;;;;;12.20;99.90;;;;;;2622901;54;19938;-70
2022/11/09 00:39:24;;;;;;;;;;;12.30;99.90;;;;;;2623804;54;19947;-70
2022/11/09 00:41:55;;;;;;;;;;;12.30;99.90;;;;;;2617645;54;20070;-70
2022/11/09 00:44:24;;;;;;;;;;;12.30;99.90;;;;;;2616635;54;19947;-69
2022/11/09 00:46:54;;;;;;;;;;;12.20;99.90;;;;;;2616489;47;19977;-69
2022/11/09 00:49:26;;;;;;;;;;;12.30;99.90;;;;;;2617009;54;19947;-70
2022/11/09 00:51:56;;;;;;;;;;;12.30;99.90;;;;;;2616723;46;19954;-70
2022/11/09 00:54:25;;;;;;;;;;;12.30;99.90;;;;;;2616592;54;19978;-69
2022/11/09 00:56:55;;;;;;;;;;;12.30;99.90;;;;;;2616322;54;19993;-71
2022/11/09 00:59:24;;;;;;;;;;;12.30;99.90;;;;;;2617202;54;19972;-70
2022/11/09 01:01:54;;;;;;;;;;;12.30;99.90;;;;;;2615813;54;20000;-70
2022/11/09 01:04:26;;;;;;;;;;;12.30;99.90;;;;;;2617106;54;19959;-70
2022/11/09 01:06:56;;;;;;;;;;;12.30;99.90;;;;;;2617281;47;19942;-71
2022/11/09 01:09:25;;;;;;;;;;;12.30;99.90;;;;;;2616934;54;20015;-70
2022/11/09 01:11:55;;;;;;;;;;;12.30;99.90;;;;;;2617783;31;20398;-70
2022/11/09 01:14:24;;;;;;;;;;;12.20;99.90;;;;;;2616775;54;19958;-70
2022/11/09 01:16:54;;;;;;;;;;;12.30;99.90;;;;;;2615587;54;19965;-70
2022/11/09 01:19:23;;;;;;;;;;;12.30;99.90;;;;;;2616707;54;19990;-70
2022/11/09 01:21:56;;;;;;;;;;;12.20;99.90;;;;;;2616234;39;20408;-70
2022/11/09 01:24:25;;;;;;;;;;;12.20;99.90;;;;;;2615965;54;19947;-71
2022/11/09 01:26:55;;;;;;;;;;;12.20;99.90;;;;;;2616478;54;19998;-71
2022/11/09 01:29:24;;;;;;;;;;;12.20;99.90;;;;;;2616692;47;19951;-71
2022/11/09 01:31:55;;;;;;;;;;;12.20;99.90;;;;;;2620887;39;20357;-71
2022/11/09 01:34:25;;;;;;;;;;;12.20;99.90;;;;;;2618929;39;20017;-71
2022/11/09 01:36:58;;;;;;;;;;;12.20;99.90;;;;;;2616254;54;19993;-71
2022/11/09 01:39:27;;;;;;;;;;;12.30;99.90;;;;;;2617198;39;20369;-72
2022/11/09 01:41:57;;;;;;;;;;;12.30;99.90;;;;;;2620542;54;19950;-72
2022/11/09 01:44:28;;;;;;;;;;;12.30;99.90;;;;;;2627478;47;19946;-71
2022/11/09 01:46:59;;;;;;;;;;;12.30;99.90;;;;;;2617719;54;19946;-70
2022/11/09 01:49:36;;;;;;;;;;;12.30;99.90;;;;;;2616136;54;20024;-71
2022/11/09 01:52:09;;;;;;;;;;;12.30;99.90;;;;;;2616661;54;19950;-72
2022/11/09 01:54:41;;;;;;;;;;;12.30;99.90;;;;;;2616251;54;19942;-70
2022/11/09 01:57:12;;;;;;;;;;;12.30;99.90;;;;;;2616594;54;19946;-71
2022/11/09 01:59:43;;;;;;;;;;;12.30;99.90;;;;;;2617200;54;20022;-71
2022/11/09 02:02:13;;;;;;;;;;;12.40;99.90;;;;;;2627115;47;19958;-71
2022/11/09 02:04:45;;;;;;;;;;;12.40;99.90;;;;;;2627395;54;19973;-72
2022/11/09 02:07:17;;;;;;;;;;;12.40;99.90;;;;;;2619361;54;19954;-70
2022/11/09 02:09:50;;;;;;;;;;;12.40;99.90;;;;;;2616836;54;19951;-71
2022/11/09 02:12:20;;;;;;;;;;;12.40;99.90;;;;;;2615609;39;20289;-71
2022/11/09 02:14:51;;;;;;;;;;;12.40;99.90;;;;;;2616891;39;20350;-70
2022/11/09 02:17:21;;;;;;;;;;;12.40;99.90;;;;;;2624199;54;19946;-71
2022/11/09 02:19:50;;;;;;;;;;;12.40;99.90;;;;;;2625950;54;20607;-71
2022/11/09 02:22:23;;;;;;;;;;;12.40;99.90;;;;;;2619145;51;20560;-71
2022/11/09 02:24:53;;;;;;;;;;;12.40;99.90;;;;;;2616569;54;19950;-71
2022/11/09 02:27:25;;;;;;;;;;;12.40;99.90;;;;;;2616728;54;19977;-71
2022/11/09 02:29:56;;;;;;;;;;;12.40;99.90;;;;;;2618109;47;19950;-70
2022/11/09 02:32:26;;;;;;;;;;;12.40;99.90;;;;;;2616733;54;19939;-72
2022/11/09 02:34:55;;;;;;;;;;;12.50;99.90;;;;;;2616571;54;19939;-71
2022/11/09 02:37:36;;;;;;;;;;;12.50;99.90;;;;;;2620283;54;19970;-70
2022/11/09 02:40:09;;;;;;;;;;;12.50;99.90;;;;;;2627239;54;19943;-70
2022/11/09 02:42:40;;;;;;;;;;;12.60;99.90;;;;;;2624115;54;20309;-72
2022/11/09 02:45:10;;;;;;;;;;;12.50;99.90;;;;;;2624679;54;19974;-70
2022/11/09 02:47:40;;;;;;;;;;;12.60;99.90;;;;;;2626786;54;19939;-72
2022/11/09 02:50:10;;;;;;;;;;;12.60;99.90;;;;;;2625053;54;19953;-71
2022/11/09 02:52:42;;;;;;;;;;;12.60;99.90;;;;;;2626360;54;19974;-72
2022/11/09 02:55:12;;;;;;;;;;;12.60;99.90;;;;;;2619339;54;19947;-70
2022/11/09 02:57:41;;;;;;;;;;;12.60;99.90;;;;;;2618044;54;19958;-71
2022/11/09 03:00:11;;;;;;;;;;;12.60;99.90;;;;;;2616993;54;19947;-71
2022/11/09 03:02:41;;;;;;;;;;;12.60;99.90;;;;;;2617396;54;19950;-70
2022/11/09 03:05:11;;;;;;;;;;;12.60;99.90;;;;;;2617201;54;19946;-71
2022/11/09 03:07:43;;;;;;;;;;;12.60;99.90;;;;;;2617216;54;19939;-71
2022/11/09 03:10:13;;;;;;;;;;;12.60;99.90;;;;;;2616200;54;20297;-71
2022/11/09 03:12:42;;;;;;;;;;;12.80;99.90;;;;;;2617679;54;19946;-72
2022/11/09 03:15:12;;;;;;;;;;;12.60;99.90;;;;;;2616690;47;19993;-71
2022/11/09 03:17:42;;;;;;;;;;;12.70;99.90;;;;;;2616594;54;20013;-70
2022/11/09 03:20:12;;;;;;;;;;;12.70;99.90;;;;;;2616371;47;19950;-70
2022/11/09 03:22:44;;;;;;;;;;;12.70;99.90;;;;;;2617368;54;19951;-70
2022/11/09 03:25:13;;;;;;;;;;;12.70;99.90;;;;;;2616864;54;19993;-69
2022/11/09 03:27:43;;;;;;;;;;;12.80;99.90;;;;;;2617618;47;19951;-70
2022/11/09 03:30:13;;;;;;;;;;;12.80;99.90;;;;;;2617898;54;19943;-71
2022/11/09 03:32:43;;;;;;;;;;;12.80;99.90;;;;;;2617658;54;19989;-70
2022/11/09 03:35:18;;;;;;;;;;;12.80;99.90;;;;;;2618119;54;19939;-70
2022/11/09 03:37:50;;;;;;;;;;;12.80;99.90;;;;;;2625505;51;19946;-71
2022/11/09 03:40:20;;;;;;;;;;;12.80;99.90;;;;;;2628871;47;19955;-71
2022/11/09 03:42:50;;;;;;;;;;;12.80;99.90;;;;;;2620627;54;19950;-70
2022/11/09 03:45:20;;;;;;;;;;;12.80;99.90;;;;;;2617945;47;19965;-70
2022/11/09 03:47:49;;;;;;;;;;;12.80;99.90;;;;;;2620081;54;19951;-70
2022/11/09 03:50:19;;;;;;;;;;;12.80;99.90;;;;;;2617682;54;19946;-71
2022/11/09 03:52:51;;;;;;;;;;;12.80;99.90;;;;;;2625345;54;19966;-70
2022/11/09 03:55:21;;;;;;;;;;;12.80;99.90;;;;;;2626158;46;19946;-70
2022/11/09 03:57:50;;;;;;;;;;;12.80;99.90;;;;;;2626048;54;19955;-71
2022/11/09 04:00:21;;;;;;;;;;;12.90;99.90;;;;;;2622924;47;19954;-71
2022/11/09 04:02:51;;;;;;;;;;;12.90;99.90;;;;;;2617209;54;19946;-71
2022/11/09 04:05:21;;;;;;;;;;;12.90;99.90;;;;;;2616913;54;20449;-71
2022/11/09 04:07:54;;;;;;;;;;;12.90;99.90;;;;;;2616753;54;19997;-71
2022/11/09 04:10:24;;;;;;;;;;;12.90;99.90;;;;;;2617112;46;19965;-70
2022/11/09 04:12:54;;;;;;;;;;;12.90;99.90;;;;;;2617245;47;20448;-69
2022/11/09 04:15:23;;;;;;;;;;;13.00;99.90;;;;;;2617014;47;20001;-71
2022/11/09 04:17:57;;;;;;;;;;;13.00;99.90;;;;;;2617448;54;19945;-70
2022/11/09 04:20:26;;;;;;;;;;;13.00;99.90;;;;;;2616892;54;19989;-70
2022/11/09 04:22:59;;;;;;;;;;;13.00;99.90;;;;;;2616316;47;19950;-72
2022/11/09 04:25:30;;;;;;;;;;;13.00;99.90;;;;;;2617124;54;20457;-69
2022/11/09 04:28:14;;;;;;;;;;;13.00;99.90;;;;;;2616928;54;19948;-70
2022/11/09 04:30:50;;;;;;;;;;;13.00;99.90;;;;;;2616376;47;19946;-71
2022/11/09 04:33:19;;;;;;;;;;;13.10;99.90;;;;;;2616616;54;19950;-71
2022/11/09 04:35:50;;;;;;;;;;;13.10;99.90;;;;;;2617628;54;19954;-71
2022/11/09 04:38:22;;;;;;;;;;;13.10;99.90;;;;;;2616427;47;19954;-71
2022/11/09 04:40:51;;;;;;;;;;;13.10;99.90;;;;;;2617169;51;19973;-71
2022/11/09 04:43:21;;;;;;;;;;;13.10;99.90;;;;;;2617441;39;20055;-72
2022/11/09 04:45:51;;;;;;;;;;;13.10;99.90;;;;;;2616846;46;19966;-73
2022/11/09 04:48:21;;;;;;;;;;;13.10;99.90;;;;;;2618084;54;19954;-72
2022/11/09 04:50:51;;;;;;;;;;;13.10;99.90;;;;;;2617019;39;20412;-70
2022/11/09 04:53:23;;;;;;;;;;;13.10;99.90;;;;;;2616452;54;19938;-70
2022/11/09 04:55:53;;;;;;;;;;;13.20;99.90;;;;;;2615517;54;20453;-70
2022/11/09 04:58:23;;;;;;;;;;;13.20;99.90;;;;;;2616727;54;19947;-71
2022/11/09 05:00:53;;;;;;;;;;;13.10;99.90;;;;;;2618050;54;19958;-70
2022/11/09 05:03:23;;;;;;;;;;;13.10;99.90;;;;;;2617671;54;20797;-70
2022/11/09 05:05:52;;;;;;;;;;;13.10;99.90;;;;;;2617903;54;19939;-72
2022/11/09 05:08:24;;;;;;;;;;;13.10;99.90;;;;;;2622831;54;19947;-74
2022/11/09 05:10:57;;;;;;;;;;;13.10;99.90;;;;;;2622189;54;19949;-70
2022/11/09 05:13:27;;;;;;;;;;;13.20;99.90;;;;;;2617117;54;19951;-72
2022/11/09 05:15:56;;;;;;;;;;;13.10;99.90;;;;;;2617921;54;19954;-72
2022/11/09 05:18:26;;;;;;;;;;;13.20;99.90;;;;;;2616418;54;19994;-72
2022/11/09 05:20:55;;;;;;;;;;;13.20;99.90;;;;;;2617385;54;19990;-72
2022/11/09 05:26:09;;;;;;;;;;;13.20;99.90;;;;;;2617080;47;20002;-72
2022/11/09 05:28:39;;;;;;;;;;;13.20;99.90;;;;;;2617128;54;19967;-72
2022/11/09 05:31:08;;;;;;;;;;;13.20;99.90;;;;;;2618195;54;19942;-70
2022/11/09 05:33:38;;;;;;;;;;;13.20;99.90;;;;;;2622787;47;19950;-71
2022/11/09 05:36:08;;;;;;;;;;;13.20;99.90;;;;;;2627891;47;19939;-71
2022/11/09 05:38:40;;;;;;;;;;;13.20;99.90;;;;;;2615697;54;19954;-71
2022/11/09 05:41:09;;;;;;;;;;;13.20;99.90;;;;;;2620249;54;19961;-71
2022/11/09 05:43:39;;;;;;;;;;;13.20;99.90;;;;;;2625334;54;19950;-73
2022/11/09 05:46:09;;;;;;;;;;;13.20;99.90;;;;;;2627194;39;20372;-71
2022/11/09 05:48:38;;;;;;;;;;;13.10;99.90;;;;;;2622921;54;19970;-71
2022/11/09 05:51:08;;;;;;;;;;;13.20;99.90;;;;;;2618722;54;19943;-71
2022/11/09 05:53:40;;;;;;;;;;;13.20;99.90;;;;;;2617351;54;19950;-70
2022/11/09 05:56:15;;;;;;;;;;;13.20;99.90;;;;;;2615898;54;19946;-64
2022/11/09 05:58:45;;;;;;;;;;;13.20;99.90;;;;;;2615108;47;20448;-66
2022/11/09 06:01:17;;;;;;;;;;;13.20;99.90;;;;;;2623522;39;20344;-65
2022/11/09 06:03:47;;;;;;;;;;;13.20;99.90;;;;;;2622413;54;19947;-66
2022/11/09 06:06:17;;;;;;;;;;;13.20;99.90;;;;;;2619338;47;19993;-66
2022/11/09 06:08:49;;;;;;;;;;;13.20;99.90;;;;;;2616696;47;19964;-66
2022/11/09 06:11:19;;;;;;;;;;;13.20;99.90;;;;;;2619027;54;19947;-66
2022/11/09 06:13:52;;;;;;;;;;;13.20;99.90;;;;;;2622750;54;19947;-63
2022/11/09 06:16:22;;;;;;;;;;;13.20;99.90;;;;;;2622899;47;20870;-66
2022/11/09 06:18:52;;;;;;;;;;;13.20;99.90;;;;;;2617047;47;20437;-66
2022/11/09 06:21:21;;;;;;;;;;;13.20;99.90;;;;;;2617389;54;20467;-66
2022/11/09 06:23:53;;;;;;;;;;;13.30;99.90;;;;;;2615476;54;20062;-66
2022/11/09 06:26:23;;;;;;;;;;;13.30;99.90;;;;;;2615696;54;19954;-66
2022/11/09 06:28:52;;;;;;;;;;;13.30;99.90;;;;;;2616602;47;19991;-66
2022/11/09 06:31:22;;;;;;;;;;;13.30;99.90;;;;;;2616739;51;19947;-67
2022/11/09 06:33:51;;;;;;;;;;;13.30;99.90;;;;;;2619130;54;20484;-69
2022/11/09 06:36:21;;;;;;;;;;;13.30;99.90;;;;;;2617211;54;20037;-68
2022/11/09 06:38:53;;;;;;;;;;;13.30;99.90;;;;;;2617287;54;20552;-68
2022/11/09 06:41:23;;;;;;;;;;;13.30;99.90;;;;;;2618173;51;19955;-70
2022/11/09 06:43:52;;;;;;;;;;;13.30;99.90;;;;;;2618437;46;19997;-68
2022/11/09 06:46:22;;;;;;;;;;;13.30;99.90;;;;;;2618325;51;19982;-67
2022/11/09 06:48:51;;;;;;;;;;;13.30;99.90;;;;;;2618589;51;19946;-68
2022/11/09 06:51:23;;;;;;;;;;;13.30;99.90;;;;;;2618395;47;19947;-68
2022/11/09 06:53:55;;;;;;;;;;;13.30;99.90;;;;;;2618364;54;19962;-68
2022/11/09 06:56:24;;;;;;;;;;;13.30;99.90;;;;;;2618623;49;19938;-67
2022/11/09 06:58:54;;;;;;;;;;;13.30;99.90;;;;;;2617325;54;19997;-67
2022/11/09 07:01:26;;;;;;;;;;;13.30;99.90;;;;;;2616572;54;20509;-71
2022/11/09 07:03:56;;;;;;;;;;;13.30;99.90;;;;;;2616765;39;20055;-68
2022/11/09 07:06:25;;;;;;;;;;;13.40;99.90;;;;;;2616571;51;20453;-66
2022/11/09 07:08:59;;;;;;;;;;;13.40;99.90;;;;;;2617329;54;19968;-65
2022/11/09 07:11:28;;;;;;;;;;;13.40;99.90;;;;;;2617311;54;19957;-65
2022/11/09 07:13:58;;;;;;;;;;;13.40;99.90;;;;;;2617228;47;19994;-65
2022/11/09 07:16:28;;;;;;;;;;;13.40;99.90;;;;;;2617829;54;20047;-65
2022/11/09 07:18:57;;;;;;;;;;;13.40;99.90;;;;;;2617973;47;20005;-64
2022/11/09 07:21:27;;;;;;;;;;;13.40;99.90;;;;;;2618065;47;19993;-65
2022/11/09 07:23:59;;;;;;;;;;;13.40;99.90;;;;;;2617394;54;19947;-65
2022/11/09 07:26:29;;;;;;;;;;;13.50;99.90;;;;;;2618894;54;19975;-65
2022/11/09 07:28:58;;;;;;;;;;;13.50;99.90;;;;;;2618914;54;19958;-66
2022/11/09 07:31:28;;;;;;;;;;;13.50;99.90;;;;;;2620161;54;19950;-66
2022/11/09 07:34:00;;;;;;;;;;;13.50;99.90;;;;;;2621250;39;20341;-63
2022/11/09 07:36:30;;;;;;;;;;;13.50;99.90;;;;;;2618639;54;19990;-63
2022/11/09 07:39:02;;;;;;;;;;;13.60;99.90;;;;;;2618157;54;19939;-63
2022/11/09 07:41:32;;;;;;;;;;;13.60;99.90;;;;;;2618275;47;19951;-63
2022/11/09 07:44:03;;;;;;;;;;;13.60;99.90;;;;;;2622295;51;19947;-64
2022/11/09 07:46:34;;;;;;;;;;;13.60;99.90;;;;;;2617073;54;19993;-63
2022/11/09 07:49:03;;;;;;;;;;;13.60;99.90;;;;;;2617553;46;19967;-63
2022/11/09 07:51:33;;;;;;;;;;;13.60;99.90;;;;;;2617052;54;19997;-64
2022/11/09 07:54:05;;;;;;;;;;;13.60;99.90;;;;;;2617089;54;19993;-64
2022/11/09 07:56:35;;;;;;;;;;;13.60;99.90;;;;;;2616050;54;19951;-64
2022/11/09 07:59:04;;;;;;;;;;;13.60;99.90;;;;;;2617618;54;19959;-66
2022/11/09 08:01:34;;;;;;;;;;;13.60;99.90;;;;;;2617890;54;19954;-65
2022/11/09 08:04:05;;;;;;;;;;;13.60;99.90;;;;;;2623647;47;19962;-65
2022/11/09 08:06:34;;;;;;;;;;;13.60;99.90;;;;;;2623322;48;19954;-67
2022/11/09 08:09:06;;;;;;;;;;;13.50;99.90;;;;;;2618887;54;19990;-65
2022/11/09 08:11:36;;;;;;;;;;;13.60;99.90;;;;;;2617024;51;20425;-66
2022/11/09 08:14:05;;;;;;;;;;;13.50;99.90;;;;;;2617262;54;20071;-66
2022/11/09 08:16:35;;;;;;;;;;;13.60;99.90;;;;;;2618745;54;19994;-66
2022/11/09 08:19:07;;;;;;;;;;;13.60;99.90;;;;;;2618268;54;19939;-66
2022/11/09 08:21:37;;;;;;;;;;;13.60;99.90;;;;;;2615985;47;20038;-66
2022/11/09 08:24:09;;;;;;;;;;;13.60;99.90;;;;;;2614972;47;19982;-65
2022/11/09 08:26:38;;;;;;;;;;;13.60;99.90;;;;;;2617138;54;19955;-68
2022/11/09 08:29:08;;;;;;;;;;;13.60;99.90;;;;;;2617872;54;19994;-68
2022/11/09 08:31:37;;;;;;;;;;;13.60;99.90;;;;;;2622248;51;20468;-66
2022/11/09 08:34:07;;;;;;;;;;;13.60;99.90;;;;;;2621561;47;20452;-70
2022/11/09 08:36:37;;;;;;;;;;;13.60;99.90;;;;;;2616843;54;19953;-71
2022/11/09 08:39:09;;;;;;;;;;;13.60;99.90;;;;;;2617380;51;19958;-68
2022/11/09 08:41:39;;;;;;;;;;;13.60;99.90;;;;;;2617581;47;19990;-68
2022/11/09 08:44:08;;;;;;;;;;;13.60;99.90;;;;;;2616662;47;20030;-68
2022/11/09 08:46:38;;;;;;;;;;;13.70;99.90;;;;;;2617380;54;20034;-69
2022/11/09 08:49:09;;;;;;;;;;;13.70;99.90;;;;;;2616996;54;19947;-70
2022/11/09 08:51:39;;;;;;;;;;;13.80;99.90;;;;;;2617911;47;19954;-71
2022/11/09 08:54:12;;;;;;;;;;;13.80;99.90;;;;;;2619720;47;19938;-70
2022/11/09 08:56:42;;;;;;;;;;;13.90;99.90;;;;;;2623483;39;20368;-72
2022/11/09 08:59:11;;;;;;;;;;;14.00;99.90;;;;;;2625849;54;19954;-75
2022/11/09 09:01:41;;;;;;;;;;;14.00;99.90;;;;;;2623091;47;20464;-69
2022/11/09 09:04:11;;;;;;;;;;;14.00;99.90;;;;;;2619560;47;19947;-71
2022/11/09 09:06:40;;;;;;;;;;;14.00;99.90;;;;;;2620339;54;19947;-69
2022/11/09 09:09:12;;;;;;;;;;;14.00;99.90;;;;;;2621798;47;20027;-72
2022/11/09 09:11:42;;;;;;;;;;;14.10;99.90;;;;;;2622083;54;19951;-72
2022/11/09 09:14:11;;;;;;;;;;;14.10;99.90;;;;;;2619524;54;19953;-73
2022/11/09 09:16:41;;;;;;;;;;;14.10;99.90;;;;;;2618301;54;20433;-67
2022/11/09 09:19:10;;;;;;;;;;;14.10;99.90;;;;;;2618198;47;19942;-66
2022/11/09 09:21:40;;;;;;;;;;;14.10;99.90;;;;;;2618134;47;20416;-67
2022/11/09 09:24:12;;;;;;;;;;;14.20;99.90;;;;;;2617188;54;19954;-66
2022/11/09 09:26:42;;;;;;;;;;;14.20;99.90;;;;;;2617459;47;19950;-67
2022/11/09 09:29:12;;;;;;;;;;;14.30;99.90;;;;;;2619906;54;19939;-68
2022/11/09 09:31:42;;;;;;;;;;;14.30;99.90;;;;;;2619765;54;20056;-71
2022/11/09 09:34:12;;;;;;;;;;;14.30;99.90;;;;;;2618703;47;19994;-69
2022/11/09 09:36:42;;;;;;;;;;;14.30;99.90;;;;;;2618203;54;19951;-69
2022/11/09 09:39:19;;;;;;;;;;;14.40;99.90;;;;;;2618821;46;20053;-73
2022/11/09 09:41:50;;;;;;;;;;;14.40;99.90;;;;;;2619274;39;20322;-72
2022/11/09 09:44:24;;;;;;;;;;;14.40;99.90;;;;;;2622273;47;19994;-72
2022/11/09 09:46:56;;;;;;;;;;;14.40;99.90;;;;;;2623079;47;19970;-72
2022/11/09 09:49:28;;;;;;;;;;;14.50;99.90;;;;;;2623126;54;19943;-70
2022/11/09 09:52:01;;;;;;;;;;;14.40;99.90;;;;;;2621178;54;19982;-71
2022/11/09 09:54:36;;;;;;;;;;;14.50;99.90;;;;;;2617815;54;19946;-72
2022/11/09 09:57:09;;;;;;;;;;;14.50;99.90;;;;;;2617646;47;19950;-68
2022/11/09 09:59:41;;;;;;;;;;;14.50;99.90;;;;;;2616766;54;19954;-68
2022/11/09 10:02:17;;;;;;;;;;;14.50;99.90;;;;;;2614993;54;19946;-68
2022/11/09 10:04:47;;;;;;;;;;;14.60;99.90;;;;;;2615380;54;20042;-74
2022/11/09 10:07:19;;;;;;;;;;;14.60;99.90;;;;;;2616591;47;20425;-68
2022/11/09 10:10:04;;;;;;;;;;;14.80;99.90;;;;;;2617155;54;20041;-70
2022/11/09 10:12:41;;;;;;;;;;;14.90;99.90;;;;;;2616682;51;20001;-68
2022/11/09 10:15:15;;;;;;;;;;;15.00;99.90;;;;;;2616935;54;19973;-68
2022/11/09 10:17:51;;;;;;;;;;;15.10;99.90;;;;;;2616711;54;19947;-69
2022/11/09 10:20:26;;;;;;;;;;;15.20;99.90;;;;;;2616926;47;20045;-69
2022/11/09 10:23:04;;;;;;;;;;;15.20;99.90;;;;;;2616804;54;19966;-68
2022/11/09 10:25:35;;;;;;;;;;;15.30;99.90;;;;;;2619627;47;19993;-70
2022/11/09 10:28:31;;;;;;;;;;;15.30;99.90;;;;;;2624216;54;19990;-68
2022/11/09 10:31:22;;;;;;;;;;;15.50;99.90;;;;;;2618500;54;19985;-68
2022/11/09 10:33:54;;;;;;;;;;;15.60;99.90;;;;;;2618405;49;19946;-71
2022/11/09 10:36:26;;;;;;;;;;;15.70;99.90;;;;;;2616331;47;20013;-70
2022/11/09 10:38:58;;;;;;;;;;;15.80;99.90;;;;;;2616658;54;19974;-69
2022/11/09 10:41:29;;;;;;;;;;;15.90;99.90;;;;;;2615633;47;19946;-71
2022/11/09 10:44:01;;;;;;;;;;;15.90;99.90;;;;;;2616960;54;20472;-68
2022/11/09 10:46:31;;;;;;;;;;;16.00;99.90;;;;;;2616806;54;19952;-68
2022/11/09 10:49:19;;;;;;;;;;;16.00;99.90;;;;;;2616308;54;19951;-68
2022/11/09 10:51:49;;;;;;;;;;;16.20;99.90;;;;;;2615819;47;20132;-68
2022/11/09 10:54:20;;;;;;;;;;;16.10;99.90;;;;;;2616462;54;19947;-69
2022/11/09 10:56:50;;;;;;;;;;;16.10;99.90;;;;;;2615751;47;20001;-73
2022/11/09 10:59:46;;;;;;;;;;;16.10;99.90;;;;;;2616983;54;19938;-69
2022/11/09 11:02:33;;;;;;;;;;;15.90;99.90;;;;;;2617065;47;19962;-69
2022/11/09 11:05:21;;;;;;;;;;;16.00;99.90;;;;;;2617047;54;19943;-69
2022/11/09 11:07:51;;;;;;;;;;;16.00;99.90;;;;;;2617602;54;19966;-69
2022/11/09 11:10:22;;;;;;;;;;;16.00;99.90;;;;;;2618440;47;20040;-71
2022/11/09 11:13:18;;;;;;;;;;;15.90;99.90;;;;;;2623233;47;19947;-69
2022/11/09 11:15:51;;;;;;;;;;;15.90;99.90;;;;;;2617363;54;19947;-69
2022/11/09 11:18:25;;;;;;;;;;;16.00;99.90;;;;;;2618702;54;19954;-71
2022/11/09 11:21:09;;;;;;;;;;;16.00;99.90;;;;;;2617100;47;19974;-71
2022/11/09 11:23:44;;;;;;;;;;;16.00;99.90;;;;;;2619772;47;19997;-69
2022/11/09 11:26:19;;;;;;;;;;;16.00;99.90;;;;;;2622145;47;19970;-69
2022/11/09 11:28:51;;;;;;;;;;;16.10;99.90;;;;;;2619761;51;19959;-69
2022/11/09 11:31:23;;;;;;;;;;;16.20;99.90;;;;;;2617251;54;20511;-69
2022/11/09 11:33:52;;;;;;;;;;;16.20;99.90;;;;;;2617465;54;19974;-69
2022/11/09 11:36:27;;;;;;;;;;;16.20;99.90;;;;;;2619047;54;19947;-70
2022/11/09 11:38:59;;;;;;;;;;;16.20;99.90;;;;;;2617286;54;19951;-68
2022/11/09 11:41:47;;;;;;;;;;;16.30;99.90;;;;;;2617144;54;19994;-68
2022/11/09 11:44:22;;;;;;;;;;;16.30;99.90;;;;;;2623187;47;19970;-68
2022/11/09 11:47:00;;;;;;;;;;;16.30;99.90;;;;;;2622648;47;19939;-68
2022/11/09 11:49:46;;;;;;;;;;;16.30;99.90;;;;;;2620659;48;19939;-68
2022/11/09 11:52:22;;;;;;;;;;;16.30;99.90;;;;;;2617184;54;19958;-68
2022/11/09 11:55:08;;;;;;;;;;;16.20;99.90;;;;;;2617438;47;19962;-68
2022/11/09 11:57:45;;;;;;;;;;;16.20;99.90;;;;;;2617624;54;19947;-72
2022/11/09 12:00:16;;;;;;;;;;;16.30;99.90;;;;;;2615679;47;19954;-69
2022/11/09 12:03:01;;;;;;;;;;;16.30;99.90;;;;;;2616203;39;20369;-71
2022/11/09 12:05:46;;;;;;;;;;;16.30;99.90;;;;;;2617256;54;19955;-73
2022/11/09 12:08:23;;;;;;;;;;;16.30;99.90;;;;;;2619046;47;19946;-72
2022/11/09 12:10:57;;;;;;;;;;;16.30;99.90;;;;;;2620816;47;20446;-70
2022/11/09 12:13:43;;;;;;;;;;;16.30;99.90;;;;;;2618005;47;19996;-70
2022/11/09 12:16:23;;;;;;;;;;;16.30;99.90;;;;;;2617100;54;19954;-70
2022/11/09 12:18:57;;;;;;;;;;;16.10;99.90;;;;;;2617517;47;19994;-69
2022/11/09 12:21:30;;;;;;;;;;;16.10;99.90;;;;;;2616141;54;19954;-70
2022/11/09 12:24:07;;;;;;;;;;;16.10;99.90;;;;;;2617016;46;19958;-70
2022/11/09 12:26:44;;;;;;;;;;;16.00;99.90;;;;;;2617468;54;19962;-70
2022/11/09 12:29:22;;;;;;;;;;;16.00;99.90;;;;;;2616870;47;20037;-71
2022/11/09 12:31:59;;;;;;;;;;;16.00;99.90;;;;;;2617734;31;20417;-71
2022/11/09 12:34:30;;;;;;;;;;;15.90;99.90;;;;;;2615627;54;19938;-69
2022/11/09 12:37:03;;;;;;;;;;;15.90;99.90;;;;;;2615526;54;19953;-71
2022/11/09 12:39:37;;;;;;;;;;;15.90;99.90;;;;;;2617205;54;19972;-70
2022/11/09 12:42:11;;;;;;;;;;;15.90;99.90;;;;;;2617501;54;19953;-69
2022/11/09 12:44:43;;;;;;;;;;;15.80;99.90;;;;;;2618944;47;19958;-70
2022/11/09 12:47:16;;;;;;;;;;;15.80;99.90;;;;;;2620325;54;19950;-69
2022/11/09 12:49:46;;;;;;;;;;;15.80;99.90;;;;;;2621442;54;19953;-71
2022/11/09 12:52:18;;;;;;;;;;;15.70;99.90;;;;;;2620518;54;19953;-73
2022/11/09 12:54:51;;;;;;;;;;;15.70;99.90;;;;;;2622036;54;19950;-73
2022/11/09 12:57:23;;;;;;;;;;;15.70;99.90;;;;;;2623182;54;19946;-74
2022/11/09 12:59:54;;;;;;;;;;;15.70;99.90;;;;;;2620437;54;19950;-75
2022/11/09 13:02:26;;;;;;;;;;;15.70;99.90;;;;;;2623021;54;20006;-70
2022/11/09 13:04:57;;;;;;;;;;;15.70;99.90;;;;;;2621151;46;19950;-71
2022/11/09 13:07:39;;;;;;;;;;;15.60;99.90;;;;;;2620299;54;19950;-70
2022/11/09 13:10:24;;;;;;;;;;;15.60;99.90;;;;;;2620383;54;19955;-73
2022/11/09 13:13:03;;;;;;;;;;;15.60;99.90;;;;;;2619914;54;19998;-69
2022/11/09 13:15:34;;;;;;;;;;;15.60;99.90;;;;;;2619685;46;20077;-70
2022/11/09 13:18:05;;;;;;;;;;;15.60;99.90;;;;;;2620271;47;20423;-70
2022/11/09 13:20:43;;;;;;;;;;;15.60;99.90;;;;;;2620580;47;19958;-72
2022/11/09 13:23:37;;;;;;;;;;;15.60;99.90;;;;;;2618221;47;19993;-70
2022/11/09 13:26:50;;;;;;;;;;;15.60;99.90;;;;;;2620404;39;20298;-70
2022/11/09 13:29:24;;;;;;;;;;;15.70;99.90;;;;;;2620094;54;19953;-70
2022/11/09 13:32:27;;;;;;;;;;;15.60;99.90;;;;;;2620549;47;19947;-70
2022/11/09 13:34:58;;;;;;;;;;;15.60;99.90;;;;;;2616867;54;19946;-69
2022/11/09 13:37:43;;;;;;;;;;;15.60;99.90;;;;;;2616556;47;19950;-70
2022/11/09 13:40:28;;;;;;;;;;;15.60;99.90;;;;;;2616876;54;19951;-73
2022/11/09 13:43:02;;;;;;;;;;;15.50;99.90;;;;;;2616747;51;19947;-71
2022/11/09 13:45:35;;;;;;;;;;;15.50;99.90;;;;;;2613619;54;19953;-69
2022/11/09 13:48:06;;;;;;;;;;;15.50;99.90;;;;;;2615373;51;19951;-70
2022/11/09 13:50:36;;;;;;;;;;;15.50;99.90;;;;;;2615997;54;19954;-72
2022/11/09 13:53:26;;;;;;;;;;;15.50;99.90;;;;;;2612443;47;20501;-68
2022/11/09 13:55:56;;;;;;;;;;;15.50;99.90;;;;;;2614774;47;19951;-72
2022/11/09 13:58:31;;;;;;;;;;;15.50;99.90;;;;;;2615309;54;19969;-65
2022/11/09 14:01:00;;;;;;;;;;;15.40;99.90;;;;;;2616453;54;19946;-68
2022/11/09 14:03:31;;;;;;;;;;;15.40;99.90;;;;;;2617833;47;19946;-65
2022/11/09 14:06:02;;;;;;;;;;;15.40;99.90;;;;;;2620888;54;19954;-65
2022/11/09 14:08:34;;;;;;;;;;;15.40;99.90;;;;;;2621074;39;20090;-65
2022/11/09 14:11:16;;;;;;;;;;;15.40;99.90;;;;;;2618428;47;19950;-65
2022/11/09 14:13:58;;;;;;;;;;;15.40;99.90;;;;;;2615748;54;19946;-69
2022/11/09 14:16:36;;;;;;;;;;;15.50;99.90;;;;;;2615338;54;19977;-69
2022/11/09 14:19:12;;;;;;;;;;;15.40;99.90;;;;;;2615228;54;19951;-71
2022/11/09 14:21:45;;;;;;;;;;;15.40;99.90;;;;;;2615999;54;19977;-71
2022/11/09 14:24:16;;;;;;;;;;;15.40;99.90;;;;;;2615017;54;19958;-73
2022/11/09 14:27:02;;;;;;;;;;;15.40;99.90;;;;;;2615952;47;19951;-71
2022/11/09 14:29:34;;;;;;;;;;;15.30;99.90;;;;;;2614550;54;19963;-71
2022/11/09 14:32:17;;;;;;;;;;;15.30;99.90;;;;;;2615981;39;20370;-71
2022/11/09 14:34:47;;;;;;;;;;;15.30;99.90;;;;;;2615293;54;19939;-72
2022/11/09 14:37:17;;;;;;;;;;;15.30;99.90;;;;;;2615586;54;19951;-71
2022/11/09 14:39:49;;;;;;;;;;;15.30;99.90;;;;;;2616868;54;19950;-71
2022/11/09 14:42:20;;;;;;;;;;;15.30;99.90;;;;;;2624496;54;19946;-72
2022/11/09 14:44:57;;;;;;;;;;;15.30;99.90;;;;;;2624394;54;19954;-74
2022/11/09 14:47:30;;;;;;;;;;;15.30;99.90;;;;;;2618865;54;20018;-70
2022/11/09 14:50:00;;;;;;;;;;;15.20;99.90;;;;;;2618040;47;19958;-71